createdAt,value
2022-11-14T00:02:23.391Z,95993.03
2022-11-14T00:05:10.515Z,95993.34
2022-11-14T00:07:58.324Z,95989.56
2022-11-14T00:10:46.707Z,95994.84
2022-11-14T00:13:33.079Z,95993.19
2022-11-14T00:16:19.992Z,95991.09
2022-11-14T00:19:06.089Z,95983.31
2022-11-14T00:21:53.349Z,95987.97
2022-11-14T00:24:40.774Z,95984.34
2022-11-14T00:27:27.028Z,95978.03
2022-11-14T00:30:13.671Z,95946.69
2022-11-14T00:33:00.272Z,95957.03
2022-11-14T00:35:52.099Z,95955.75
2022-11-14T00:38:38.245Z,95960.25
2022-11-14T00:41:25.988Z,95947.75
2022-11-14T00:44:12.441Z,95946.34
2022-11-14T00:46:58.727Z,95938.72
2022-11-14T00:49:44.821Z,95934.47
2022-11-14T00:52:30.920Z,95966.94
2022-11-14T00:55:17.093Z,95976.28
2022-11-14T00:58:04.723Z,95975.81
2022-11-14T01:00:50.848Z,95978.81
2022-11-14T01:03:36.872Z,95995.13
2022-11-14T01:06:23.311Z,95990.41
2022-11-14T01:09:09.937Z,95988.66
2022-11-14T01:11:56.065Z,95946.47
2022-11-14T01:14:43.747Z,95980.28
2022-11-14T01:17:29.928Z,95980.28
2022-11-14T01:20:16.780Z,95972.97
2022-11-14T01:23:02.831Z,95978.50
2022-11-14T01:25:48.893Z,95977.72
2022-11-14T01:28:35.351Z,95964.50
2022-11-14T01:31:25.457Z,95993.56
2022-11-14T01:34:11.783Z,95984.84
2022-11-14T01:36:57.955Z,95980.22
2022-11-14T01:39:43.968Z,95993.81
2022-11-14T01:42:30.032Z,95986.75
2022-11-14T01:45:51.527Z,95991.09
2022-11-14T01:48:42.625Z,95981.97
2022-11-14T01:51:32.280Z,95981.19
2022-11-14T01:54:22.841Z,95952.06
2022-11-14T01:57:11.258Z,95958.22
2022-11-14T02:00:02.331Z,95960.53
2022-11-14T02:02:49.217Z,95955.38
2022-11-14T02:05:37.531Z,95947.91
2022-11-14T02:08:25.915Z,95937.19
2022-11-14T02:11:12.961Z,95938.59
2022-11-14T02:14:00.185Z,95947.06
2022-11-14T02:17:01.137Z,95944.94
2022-11-14T02:19:54.864Z,95934.75
2022-11-14T02:22:43.384Z,95937.13
2022-11-14T02:25:30.078Z,95930.19
2022-11-14T02:28:16.523Z,95932.00
2022-11-14T02:31:02.901Z,95930.72
2022-11-14T02:33:49.101Z,95935.22
2022-11-14T02:36:35.157Z,95933.44
2022-11-14T02:39:23.150Z,95931.84
2022-11-14T02:42:09.818Z,95909.38
2022-11-14T02:44:56.127Z,95941.44
2022-11-14T02:47:42.372Z,95960.41
2022-11-14T02:50:28.408Z,95955.91
2022-11-14T02:53:14.695Z,95943.47
2022-11-14T02:56:02.337Z,95937.78
2022-11-14T02:58:48.445Z,95930.97
2022-11-14T03:01:34.636Z,95922.03
2022-11-14T03:04:20.729Z,95910.47
2022-11-14T03:07:06.878Z,95912.75
2022-11-14T03:09:53.050Z,95905.19
2022-11-14T03:12:40.794Z,95907.69
2022-11-14T03:15:27.140Z,95905.41
2022-11-14T03:18:13.659Z,95906.22
2022-11-14T03:21:06.353Z,95905.75
2022-11-14T03:23:52.826Z,95916.19
2022-11-14T03:26:38.797Z,95917.53
2022-11-14T03:29:26.197Z,95905.34
2022-11-14T03:32:12.336Z,95899.25
2022-11-14T03:34:58.856Z,95892.47
2022-11-14T03:37:45.066Z,95901.63
2022-11-14T03:40:31.337Z,95905.91
2022-11-14T03:43:17.682Z,95905.41
2022-11-14T03:46:05.928Z,95901.56
2022-11-14T03:48:52.483Z,95891.50
2022-11-14T03:51:38.668Z,95887.94
2022-11-14T03:54:24.950Z,95891.50
2022-11-14T03:57:11.289Z,95919.28
2022-11-14T03:59:57.446Z,95912.06
2022-11-14T04:02:45.033Z,95903.22
2022-11-14T04:05:31.306Z,95922.50
2022-11-14T04:08:17.985Z,95926.47
2022-11-14T04:11:04.247Z,95940.88
2022-11-14T04:13:50.359Z,95931.19
2022-11-14T04:16:36.485Z,95915.41
2022-11-14T04:19:23.929Z,95906.53
2022-11-14T04:22:10.173Z,95911.81
2022-11-14T04:24:56.348Z,95930.66
2022-11-14T04:27:42.386Z,95931.28
2022-11-14T04:30:32.148Z,95929.78
2022-11-14T04:33:21.117Z,95925.59
2022-11-14T04:36:08.999Z,95911.13
2022-11-14T04:38:55.407Z,95894.50
2022-11-14T04:41:41.432Z,95908.81
2022-11-14T04:44:27.535Z,95902.16
2022-11-14T04:47:13.929Z,95904.47
2022-11-14T04:50:00.172Z,95899.63
2022-11-14T04:52:47.659Z,95902.16
2022-11-14T04:55:34.060Z,95900.66
2022-11-14T04:58:20.522Z,95892.59
2022-11-14T05:01:09.024Z,95898.59
2022-11-14T05:03:55.529Z,95901.00
2022-11-14T05:06:41.857Z,95898.78
2022-11-14T05:09:29.512Z,95910.16
2022-11-14T05:12:15.523Z,95864.38
2022-11-14T05:15:01.746Z,95896.25
2022-11-14T05:17:48.111Z,95899.66
2022-11-14T05:20:34.254Z,95904.16
2022-11-14T05:23:22.310Z,95904.28
2022-11-14T05:26:12.110Z,95901.69
2022-11-14T05:28:58.274Z,95893.09
2022-11-14T05:31:45.573Z,95904.25
2022-11-14T05:34:31.588Z,95900.34
2022-11-14T05:37:17.774Z,95900.34
2022-11-14T05:40:05.328Z,95904.69
2022-11-14T05:42:55.895Z,95898.59
2022-11-14T05:45:42.027Z,95897.34
2022-11-14T05:48:28.773Z,95916.66
2022-11-14T05:51:15.646Z,95910.16
2022-11-14T05:54:02.110Z,95913.88
2022-11-14T05:56:48.310Z,95924.53
2022-11-14T05:59:35.815Z,95933.56
2022-11-14T06:02:21.908Z,95940.06
2022-11-14T06:05:08.553Z,95934.44
2022-11-14T06:07:58.737Z,95937.28
2022-11-14T06:10:44.761Z,95942.97
2022-11-14T06:13:31.514Z,95941.38
2022-11-14T06:16:20.778Z,95941.50
2022-11-14T06:19:07.249Z,95927.72
2022-11-14T06:21:53.197Z,95949.56
2022-11-14T06:24:39.483Z,95947.66
2022-11-14T06:27:26.360Z,95939.75
2022-11-14T06:30:13.652Z,95958.75
2022-11-14T06:33:01.147Z,95953.81
2022-11-14T06:35:47.304Z,95956.53
2022-11-14T06:38:34.283Z,95947.91
2022-11-14T06:41:22.229Z,95948.16
2022-11-14T06:44:09.641Z,95949.25
2022-11-14T06:46:56.372Z,95961.94
2022-11-14T06:49:44.026Z,95958.75
2022-11-14T06:52:30.251Z,95960.41
2022-11-14T06:55:20.871Z,95952.41
2022-11-14T06:58:10.360Z,95958.91
2022-11-14T07:00:56.515Z,95966.91
2022-11-14T07:03:43.459Z,95963.09
2022-11-14T07:06:32.347Z,95968.22
2022-11-14T07:09:18.722Z,95944.75
2022-11-14T07:12:05.115Z,95963.31
2022-11-14T07:14:51.532Z,95962.16
2022-11-14T07:17:37.516Z,95950.13
2022-11-14T07:20:23.616Z,95949.81
2022-11-14T07:23:11.145Z,95915.88
2022-11-14T07:25:57.264Z,95948.84
2022-11-14T07:28:49.347Z,95944.81
2022-11-14T07:31:38.329Z,95953.13
2022-11-14T07:34:24.442Z,95946.97
2022-11-14T07:37:10.618Z,95949.09
2022-11-14T07:39:58.067Z,95947.19
2022-11-14T07:42:44.198Z,95957.16
2022-11-14T07:45:30.567Z,95957.41
2022-11-14T07:48:17.961Z,95952.31
2022-11-14T07:51:07.251Z,95947.19
2022-11-14T07:53:54.498Z,95947.09
2022-11-14T07:56:42.039Z,95956.13
2022-11-14T07:59:28.200Z,95946.22
2022-11-14T08:02:16.701Z,95932.75
2022-11-14T08:05:03.343Z,95933.69
2022-11-14T08:07:52.327Z,95939.47
2022-11-14T08:10:38.718Z,95908.16
2022-11-14T08:13:34.388Z,95916.28
2022-11-14T08:16:20.745Z,95924.97
2022-11-14T08:19:07.229Z,95924.47
2022-11-14T08:21:53.624Z,95908.41
2022-11-14T08:24:40.169Z,95920.78
2022-11-14T08:27:26.657Z,95924.09
2022-11-14T08:30:15.248Z,95932.41
2022-11-14T08:33:03.691Z,95919.47
2022-11-14T08:35:50.101Z,95873.47
2022-11-14T08:38:36.398Z,95891.94
2022-11-14T08:41:22.896Z,95909.63
2022-11-14T08:44:09.193Z,95906.19
2022-11-14T08:46:56.824Z,95911.09
2022-11-14T08:49:42.944Z,95918.78
2022-11-14T08:52:29.302Z,95910.22
2022-11-14T08:55:15.584Z,95912.91
2022-11-14T08:58:01.753Z,95955.28
2022-11-14T09:00:47.792Z,95943.69
2022-11-14T09:03:35.581Z,95903.66
2022-11-14T09:06:22.035Z,95925.59
2022-11-14T09:09:08.269Z,95919.47
2022-11-14T09:11:54.292Z,95919.41
2022-11-14T09:14:40.408Z,95916.59
2022-11-14T09:17:26.654Z,95915.94
2022-11-14T09:20:14.343Z,95919.09
2022-11-14T09:23:01.842Z,95912.56
2022-11-14T09:25:49.398Z,95911.34
2022-11-14T09:28:35.853Z,95916.72
2022-11-14T09:31:21.991Z,95920.56
2022-11-14T09:34:11.772Z,95921.66
2022-11-14T09:36:59.165Z,95920.69
2022-11-14T09:39:45.294Z,95919.56
2022-11-14T09:42:58.680Z,95899.84
2022-11-14T09:45:51.215Z,95927.94
2022-11-14T09:48:37.494Z,95935.88
2022-11-14T09:51:26.605Z,95938.41
2022-11-14T09:54:21.584Z,95934.91
2022-11-14T09:57:16.147Z,95928.22
2022-11-14T10:00:02.475Z,95937.09
2022-11-14T10:03:13.952Z,95942.06
2022-11-14T10:06:18.790Z,95953.91
2022-11-14T10:09:38.249Z,95951.50
2022-11-14T10:12:32.316Z,95949.25
2022-11-14T10:15:28.538Z,95941.91
2022-11-14T10:18:33.389Z,95936.50
2022-11-14T10:21:44.588Z,95947.31
2022-11-14T10:25:10.790Z,95940.56
2022-11-14T10:28:12.341Z,95950.03
2022-11-14T10:31:06.247Z,95947.44
2022-11-14T10:34:00.569Z,95954.81
2022-11-14T10:36:58.292Z,95954.56
2022-11-14T10:39:50.103Z,95943.00
2022-11-14T10:42:39.473Z,95923.28
2022-11-14T10:45:32.999Z,95954.81
2022-11-14T10:48:29.940Z,95947.72
2022-11-14T10:51:21.924Z,95952.72
2022-11-14T10:54:18.917Z,95951.16
2022-11-14T10:57:14.311Z,95950.34
2022-11-14T11:00:00.486Z,95934.06
2022-11-14T11:02:53.414Z,95944.56
2022-11-14T11:05:48.428Z,95967.63
2022-11-14T11:09:00.492Z,95978.34
2022-11-14T11:11:55.656Z,95975.22
2022-11-14T11:14:42.227Z,95974.44
2022-11-14T11:17:35.914Z,95982.34
2022-11-14T11:20:31.759Z,95975.28
2022-11-14T11:23:26.434Z,95985.56
2022-11-14T11:26:19.793Z,96019.75
2022-11-14T11:29:15.413Z,96019.16
2022-11-14T11:32:02.564Z,96014.38
2022-11-14T11:34:49.035Z,96014.94
2022-11-14T11:37:41.084Z,96004.22
2022-11-14T11:40:29.533Z,95989.22
2022-11-14T11:43:39.497Z,95998.94
2022-11-14T11:46:33.417Z,95992.38
2022-11-14T11:49:24.642Z,95991.84
2022-11-14T11:52:18.879Z,96015.00
2022-11-14T11:55:18.275Z,95994.22
2022-11-14T11:58:07.631Z,95999.75
2022-11-14T12:00:55.795Z,96001.34
2022-11-14T12:03:45.646Z,95996.06
2022-11-14T12:06:40.506Z,95992.13
2022-11-14T12:09:55.769Z,95997.63
2022-11-14T12:13:00.123Z,96003.16
2022-11-14T12:15:59.863Z,95997.13
2022-11-14T12:19:18.050Z,96005.53
2022-11-14T12:22:23.791Z,96002.94
2022-11-14T12:25:35.399Z,95975.84
2022-11-14T12:28:41.329Z,96003.19
2022-11-14T12:31:29.884Z,95988.47
2022-11-14T12:34:25.581Z,96010.28
2022-11-14T12:37:18.351Z,96013.19
2022-11-14T12:40:07.501Z,96014.75
2022-11-14T12:42:53.914Z,96014.75
2022-11-14T12:46:03.146Z,96018.16
2022-11-14T12:48:49.400Z,96013.44
2022-11-14T12:51:52.281Z,96017.91
2022-11-14T12:54:46.950Z,96019.75
2022-11-14T12:57:50.947Z,96017.38
2022-11-14T13:00:47.894Z,96020.78
2022-11-14T13:03:48.573Z,96018.94
2022-11-14T13:06:43.639Z,95992.13
2022-11-14T13:09:35.077Z,96020.19
2022-11-14T13:12:54.991Z,96021.75
2022-11-14T13:16:09.397Z,96010.97
2022-11-14T13:19:20.298Z,96018.88
2022-11-14T13:22:22.020Z,96015.44
2022-11-14T13:25:20.244Z,96014.13
2022-11-14T13:28:39.671Z,96014.94
2022-11-14T13:31:43.121Z,96009.69
2022-11-14T13:34:38.652Z,96000.72
2022-11-14T13:37:49.749Z,96003.63
2022-11-14T13:40:42.756Z,95976.56
2022-11-14T13:43:47.641Z,96003.34
2022-11-14T13:46:48.886Z,96006.78
2022-11-14T13:49:53.398Z,96001.00
2022-11-14T13:52:43.157Z,95998.88
2022-11-14T13:55:39.035Z,95998.88
2022-11-14T13:58:39.436Z,95989.19
2022-11-14T14:01:40.111Z,95989.16
2022-11-14T14:04:41.502Z,95989.41
2022-11-14T14:07:45.483Z,95992.06
2022-11-14T14:10:41.001Z,95962.09
2022-11-14T14:13:40.278Z,95991.50
2022-11-14T14:16:36.571Z,95989.66
2022-11-14T14:19:42.437Z,95978.84
2022-11-14T14:22:39.641Z,95983.31
2022-11-14T14:25:35.329Z,95980.16
2022-11-14T14:28:31.182Z,95985.97
2022-11-14T14:31:20.104Z,95972.84
2022-11-14T14:34:22.570Z,95992.28
2022-11-14T14:37:18.211Z,95987.06
2022-11-14T14:40:08.620Z,95993.38
2022-11-14T14:42:57.211Z,95992.34
2022-11-14T14:45:48.355Z,95963.94
2022-11-14T14:48:37.401Z,95992.34
2022-11-14T14:51:31.344Z,95995.25
2022-11-14T14:54:22.343Z,95975.03
2022-11-14T14:57:22.527Z,95989.75
2022-11-14T15:00:21.006Z,95983.47
2022-11-14T15:03:07.837Z,95990.56
2022-11-14T15:06:01.894Z,95993.72
2022-11-14T15:08:48.351Z,95986.63
2022-11-14T15:11:35.722Z,95973.75
2022-11-14T15:14:25.490Z,95974.56
2022-11-14T15:17:12.730Z,95980.31
2022-11-14T15:19:58.914Z,95981.34
2022-11-14T15:23:03.274Z,95984.25
2022-11-14T15:26:15.711Z,95983.72
2022-11-14T15:29:16.365Z,95976.09
2022-11-14T15:32:06.509Z,95967.41
2022-11-14T15:35:08.948Z,95977.94
2022-11-14T15:38:37.033Z,95973.41
2022-11-14T15:41:20.129Z,95966.31
2022-11-14T15:44:06.376Z,95969.47
2022-11-14T15:46:52.981Z,95967.38
2022-11-14T15:49:40.938Z,95970.28
2022-11-14T15:52:34.853Z,95970.53
2022-11-14T15:55:23.452Z,95973.19
2022-11-14T16:01:24.744Z,95971.38
2022-11-14T16:04:15.660Z,95961.41
2022-11-14T16:07:03.128Z,95974.78
2022-11-14T16:09:49.619Z,95970.84
2022-11-14T16:12:35.838Z,95964.81
2022-11-14T16:15:23.295Z,95967.44
2022-11-14T16:18:09.697Z,95963.78
2022-11-14T16:20:59.217Z,95962.19
2022-11-14T16:23:46.963Z,95971.41
2022-11-14T16:26:33.237Z,95971.13
2022-11-14T16:29:19.534Z,95968.75
2022-11-14T16:32:06.092Z,95970.34
2022-11-14T16:34:53.343Z,95973.75
2022-11-14T16:37:39.666Z,95978.75
2022-11-14T16:40:28.768Z,95986.63
2022-11-14T16:43:15.598Z,95990.56
2022-11-14T16:46:04.921Z,95992.13
2022-11-14T16:48:51.385Z,95991.09
2022-11-14T16:51:47.360Z,95983.47
2022-11-14T16:54:35.574Z,95994.22
2022-11-14T16:57:23.307Z,95988.47
2022-11-14T17:00:12.216Z,95984.75
2022-11-14T17:02:58.707Z,95991.59
2022-11-14T17:05:47.189Z,95987.88
2022-11-14T17:08:33.644Z,95987.31
2022-11-14T17:11:19.738Z,95984.44
2022-11-14T17:14:07.514Z,95991.25
2022-11-14T17:16:53.967Z,95982.31
2022-11-14T17:19:45.774Z,95988.66
2022-11-14T17:22:32.051Z,95994.16
2022-11-14T17:25:18.555Z,95986.75
2022-11-14T17:28:05.519Z,95994.63
2022-11-14T17:30:53.183Z,95990.16
2022-11-14T17:33:39.684Z,95980.91
2022-11-14T17:36:28.457Z,95985.34
2022-11-14T17:39:14.468Z,95980.03
2022-11-14T17:42:00.475Z,95977.94
2022-11-14T17:44:46.867Z,95976.88
2022-11-14T17:47:34.271Z,95977.09
2022-11-14T17:50:20.437Z,95981.03
2022-11-14T17:53:06.701Z,95983.34
2022-11-14T17:55:58.093Z,95972.88
2022-11-14T17:58:45.336Z,95979.38
2022-11-14T18:01:31.724Z,95978.06
2022-11-14T18:04:20.026Z,95979.84
2022-11-14T18:07:06.234Z,95976.97
2022-11-14T18:09:52.358Z,95971.16
2022-11-14T18:12:38.778Z,95985.59
2022-11-14T18:15:27.884Z,95981.34
2022-11-14T18:18:14.201Z,95987.06
2022-11-14T18:21:07.336Z,95978.84
2022-11-14T18:23:55.523Z,95983.84
2022-11-14T18:26:41.948Z,95982.75
2022-11-14T18:29:28.418Z,95986.41
2022-11-14T18:32:15.567Z,95988.50
2022-11-14T18:35:02.056Z,95980.91
2022-11-14T18:37:49.906Z,95985.34
2022-11-14T18:40:36.102Z,95989.25
2022-11-14T18:43:22.340Z,95990.28
2022-11-14T18:46:10.264Z,95983.16
2022-11-14T18:48:58.197Z,95987.56
2022-11-14T18:51:44.731Z,95989.88
2022-11-14T18:54:32.694Z,95990.38
2022-11-14T18:57:18.816Z,95998.94
2022-11-14T19:00:06.157Z,95984.50
2022-11-14T19:02:52.337Z,95986.56
2022-11-14T19:05:38.788Z,95983.31
2022-11-14T19:08:28.429Z,95996.38
2022-11-14T19:11:35.615Z,95986.44
2022-11-14T19:14:22.228Z,95990.56
2022-11-14T19:17:08.364Z,95984.13
2022-11-14T19:19:54.600Z,95994.91
2022-11-14T19:22:40.842Z,95986.75
2022-11-14T19:25:27.049Z,95990.41
2022-11-14T19:28:14.648Z,95994.25
2022-11-14T19:31:04.324Z,95996.81
2022-11-14T19:33:51.120Z,95998.63
2022-11-14T19:36:58.771Z,95993.41
2022-11-14T19:39:44.073Z,95996.69
2022-11-14T19:42:30.127Z,95991.97
2022-11-14T19:45:17.801Z,95995.81
2022-11-14T19:48:04.129Z,95993.91
2022-11-14T19:50:50.332Z,95987.03
2022-11-14T19:53:38.641Z,95984.66
2022-11-14T19:56:25.518Z,95981.19
2022-11-14T19:59:14.898Z,95981.25
2022-11-14T20:02:04.426Z,95988.31
2022-11-14T20:04:50.582Z,95979.94
2022-11-14T20:07:37.434Z,95983.56
2022-11-14T20:10:23.479Z,95974.69
2022-11-14T20:13:09.678Z,95978.09
2022-11-14T20:15:55.853Z,95978.56
2022-11-14T20:18:45.549Z,95983.31
2022-11-14T20:21:34.560Z,95979.34
2022-11-14T20:24:22.698Z,95975.69
2022-11-14T20:27:09.426Z,95975.66
2022-11-14T20:29:56.007Z,95975.34
2022-11-14T20:32:42.233Z,95974.78
2022-11-14T20:35:29.719Z,95974.47
2022-11-14T20:38:16.213Z,95972.63
2022-11-14T20:41:02.620Z,95971.31
2022-11-14T20:43:49.438Z,95971.31
2022-11-14T20:46:35.585Z,95969.25
2022-11-14T20:49:21.812Z,95961.66
2022-11-14T20:52:09.484Z,95960.53
2022-11-14T20:54:55.629Z,95957.22
2022-11-14T20:57:41.828Z,95954.53
2022-11-14T21:00:28.031Z,95951.38
2022-11-14T21:03:14.168Z,95958.09
2022-11-14T21:06:01.371Z,95957.81
2022-11-14T21:08:49.128Z,95951.78
2022-11-14T21:11:35.250Z,95950.75
2022-11-14T21:14:21.672Z,95951.25
2022-11-14T21:17:07.831Z,95947.59
2022-11-14T21:19:54.277Z,95944.97
2022-11-14T21:22:40.241Z,95941.81
2022-11-14T21:25:28.008Z,95940.63
2022-11-14T21:28:14.236Z,95938.97
2022-11-14T21:31:00.831Z,95931.06
2022-11-14T21:33:48.333Z,95929.78
2022-11-14T21:36:49.932Z,95927.66
2022-11-14T21:39:36.354Z,95927.09
2022-11-14T21:42:24.006Z,95919.06
2022-11-14T21:45:11.470Z,95920.28
2022-11-14T21:47:57.881Z,95920.06
2022-11-14T21:50:44.152Z,95914.59
2022-11-14T21:53:30.814Z,95915.47
2022-11-14T21:56:22.046Z,95920.97
2022-11-14T21:59:15.546Z,95916.91
2022-11-14T22:02:20.876Z,95919.16
2022-11-14T22:05:07.898Z,95919.81
2022-11-14T22:07:54.330Z,95916.16
2022-11-14T22:10:40.599Z,95921.94
2022-11-14T22:13:26.825Z,95922.25
2022-11-14T22:16:17.296Z,95916.47
2022-11-14T22:19:05.589Z,95920.69
2022-11-14T22:21:52.265Z,95927.53
2022-11-14T22:24:38.598Z,95924.38
2022-11-14T22:27:24.744Z,95921.94
2022-11-14T22:30:12.229Z,95923.22
2022-11-14T22:33:01.145Z,95933.88
2022-11-14T22:35:47.415Z,95925.47
2022-11-14T22:38:35.191Z,95926.16
2022-11-14T22:41:26.475Z,95923.50
2022-11-14T22:44:16.887Z,95930.53
2022-11-14T22:47:03.096Z,95934.03
2022-11-14T22:49:50.501Z,95933.66
2022-11-14T22:52:36.784Z,95927.75
2022-11-14T22:55:23.040Z,95923.97
2022-11-14T22:58:09.303Z,95928.41
2022-11-14T23:00:55.342Z,95923.13
2022-11-14T23:03:41.949Z,95920.69
2022-11-14T23:06:31.842Z,95924.06
2022-11-14T23:09:18.022Z,95927.94
2022-11-14T23:12:04.247Z,95922.34
2022-11-14T23:14:50.388Z,95924.41
2022-11-14T23:17:36.527Z,95915.22
2022-11-14T23:20:22.772Z,95923.31
2022-11-14T23:23:10.294Z,95920.59
2022-11-14T23:25:56.652Z,95919.50
2022-11-14T23:28:43.932Z,95909.59
2022-11-14T23:31:29.932Z,95913.19
2022-11-14T23:34:15.996Z,95912.38
2022-11-14T23:37:01.973Z,95910.25
2022-11-14T23:39:49.547Z,95903.06
2022-11-14T23:42:35.871Z,95910.63
2022-11-14T23:45:22.152Z,95905.13
2022-11-14T23:48:08.107Z,95907.97
2022-11-14T23:50:56.437Z,95905.28
2022-11-14T23:53:42.662Z,95895.94
2022-11-14T23:56:30.169Z,95898.78
2022-11-14T23:59:16.169Z,95888.81
